Time;durP1;ratioP1;P1;durP2;ratioP2;P2;SDS_P1;SDS_P2;PMS_P1;PMS_P2;Temp;Humidity;BMP_temperature;BMP_pressure;BME280_temperature;BME280_humidity;BME280_pressure;Samples;Min_cycle;Max_cycle;Signal;HPM_P1;HPM_P2
2023/02/04 00:01:21;;;;;;;31.58;4.45;;;;;;;-143.48;76.91;118439.88;5075845;28;20024;-70
2023/02/04 00:03:46;;;;;;;27.55;3.90;;;;;;;-143.48;77.19;118439.88;5057769;28;20507;-70
2023/02/04 00:06:12;;;;;;;29.65;4.25;;;;;;;-143.48;77.54;118439.88;5057617;28;20039;-70
2023/02/04 00:08:37;;;;;;;31.80;4.20;;;;;;;-143.48;77.83;118439.88;5075732;28;20456;-70
2023/02/04 00:11:03;;;;;;;23.13;3.65;;;;;;;-143.48;78.16;118439.88;5075513;28;20036;-70
2023/02/04 00:13:28;;;;;;;24.42;3.70;;;;;;;-143.48;78.85;118439.88;5057521;28;20404;-71
2023/02/04 00:15:53;;;;;;;27.08;4.28;;;;;;;-143.48;79.32;118439.88;5075454;28;20025;-70
2023/02/04 00:18:19;;;;;;;32.47;4.43;;;;;;;-143.48;79.65;118439.88;5075161;28;20024;-69
2023/02/04 00:20:44;;;;;;;26.00;3.83;;;;;;;-143.48;80.53;118439.88;5075260;28;20025;-70
2023/02/04 00:23:09;;;;;;;25.85;3.80;;;;;;;-143.48;81.03;118439.88;5057825;28;20028;-71
2023/02/04 00:25:35;;;;;;;26.75;3.50;;;;;;;-143.48;81.14;118439.88;5074878;28;20028;-70
2023/02/04 00:28:00;;;;;;;23.17;3.85;;;;;;;-143.48;81.37;118439.88;5075132;28;20070;-70
2023/02/04 00:30:26;;;;;;;28.23;3.97;;;;;;;-143.48;81.76;118439.88;5057100;28;20032;-70
2023/02/04 00:32:53;;;;;;;38.50;4.40;;;;;;;-143.48;82.00;118439.88;5057370;28;20103;-70
2023/02/04 00:35:19;;;;;;;27.40;4.18;;;;;;;-143.48;82.44;118439.88;5074919;28;20036;-70
2023/02/04 00:37:45;;;;;;;28.70;3.88;;;;;;;-143.48;82.59;118439.88;5074745;28;20032;-72
2023/02/04 00:40:11;;;;;;;35.40;4.47;;;;;;;-143.48;83.68;118439.88;5056859;28;20081;-70
2023/02/04 00:42:36;;;;;;;24.30;3.60;;;;;;;-143.48;83.37;118439.88;5074956;28;20115;-71
2023/02/04 00:45:02;;;;;;;23.55;3.70;;;;;;;-143.48;83.82;118439.88;5074687;28;20027;-71
2023/02/04 00:47:27;;;;;;;26.75;4.97;;;;;;;-143.48;83.84;118439.88;5074607;28;20086;-71
2023/02/04 00:49:52;;;;;;;26.80;3.70;;;;;;;-143.48;84.03;118439.88;5074818;28;20395;-71
2023/02/04 00:52:17;;;;;;;34.10;4.05;;;;;;;-143.48;84.56;118439.88;5074554;28;20056;-71
2023/02/04 00:54:43;;;;;;;25.13;4.03;;;;;;;-143.48;84.37;118439.88;5074613;28;20107;-71
2023/02/04 00:57:08;;;;;;;29.33;4.88;;;;;;;-143.48;84.24;118439.88;5074585;28;20025;-70
2023/02/04 00:59:33;;;;;;;29.75;3.90;;;;;;;-143.48;85.39;118439.88;5074498;28;20501;-71
2023/02/04 01:01:59;;;;;;;25.48;3.50;;;;;;;-143.48;85.78;118439.88;5056508;28;20016;-71
2023/02/04 01:04:25;;;;;;;34.78;4.50;;;;;;;-143.48;85.81;118439.88;5074412;28;20058;-70
2023/02/04 01:06:50;;;;;;;31.08;5.13;;;;;;;-143.48;86.05;118439.88;5074492;28;20032;-71
2023/02/04 01:09:15;;;;;;;30.50;4.28;;;;;;;-143.48;86.09;118439.88;5074445;28;20024;-71
2023/02/04 01:11:40;;;;;;;24.85;4.18;;;;;;;-143.48;86.32;118439.88;5074237;28;20024;-70
2023/02/04 01:14:06;;;;;;;33.83;4.90;;;;;;;-143.48;86.63;118439.88;5074208;28;20024;-70
2023/02/04 01:16:32;;;;;;;34.13;4.80;;;;;;;-143.48;86.63;118439.88;5074226;28;20468;-70
2023/02/04 01:18:57;;;;;;;33.25;3.95;;;;;;;-143.48;86.97;118439.88;5073946;28;20482;-70
2023/02/04 01:21:23;;;;;;;33.78;4.38;;;;;;;-143.48;87.80;118439.88;5074175;28;20529;-70
2023/02/04 01:23:49;;;;;;;29.80;4.85;;;;;;;-143.48;87.75;118439.88;5073954;28;20372;-70
2023/02/04 01:26:15;;;;;;;30.63;3.92;;;;;;;-143.48;88.14;118439.88;5074087;28;20100;-70
2023/02/04 01:28:40;;;;;;;32.88;4.13;;;;;;;-143.48;88.53;118439.88;5055894;28;20016;-70
2023/02/04 01:31:06;;;;;;;34.08;4.22;;;;;;;-143.48;88.81;118439.88;5073874;28;20383;-70
2023/02/04 01:33:31;;;;;;;23.75;3.60;;;;;;;-143.48;88.54;118439.88;5073279;28;20118;-70
2023/02/04 01:35:56;;;;;;;30.48;4.05;;;;;;;-143.48;88.39;118439.88;5055834;28;20020;-71
2023/02/04 01:38:22;;;;;;;32.42;4.65;;;;;;;-143.48;89.08;118439.88;5055841;28;20496;-70
2023/02/04 01:40:47;;;;;;;29.67;4.35;;;;;;;-143.48;89.92;118439.88;5073728;28;20020;-71
2023/02/04 01:43:13;;;;;;;32.17;5.00;;;;;;;-143.48;89.86;118439.88;5073686;28;20025;-70
2023/02/04 01:45:38;;;;;;;37.20;4.45;;;;;;;-143.48;89.94;118439.88;5073552;28;20028;-70
2023/02/04 01:48:06;;;;;;;35.03;4.55;;;;;;;-143.48;90.65;118439.88;5055698;28;20020;-70
2023/02/04 01:50:32;;;;;;;38.92;4.57;;;;;;;-143.48;91.25;118439.88;5073779;28;20051;-70
2023/02/04 01:52:57;;;;;;;27.40;3.78;;;;;;;-143.48;90.89;118439.88;5073371;28;20048;-70
2023/02/04 01:55:27;;;;;;;33.50;4.82;;;;;;;-143.48;90.98;118439.88;5073604;28;20035;-70
2023/02/04 01:57:54;;;;;;;27.55;3.80;;;;;;;-143.48;91.31;118439.88;5073602;28;20032;-71
2023/02/04 02:00:26;;;;;;;32.47;4.88;;;;;;;-143.48;91.33;118439.88;5055604;28;20024;-68
2023/02/04 02:02:53;;;;;;;31.93;4.77;;;;;;;-143.48;91.23;118439.88;5055641;28;20027;-70
2023/02/04 02:05:30;;;;;;;35.83;4.18;;;;;;;-143.48;91.28;118439.88;5073399;28;20025;-70
2023/02/04 02:07:58;;;;;;;35.65;5.00;;;;;;;-143.48;91.22;118439.88;5073310;28;20024;-69
2023/02/04 02:10:24;;;;;;;37.88;5.13;;;;;;;-143.48;91.29;118439.88;5073420;28;20043;-70
2023/02/04 02:12:50;;;;;;;29.65;4.80;;;;;;;-143.48;91.34;118439.88;5073517;28;20476;-70
2023/02/04 02:15:16;;;;;;;46.70;5.03;;;;;;;-143.48;91.33;118439.88;5073268;28;20388;-70
2023/02/04 02:17:42;;;;;;;38.30;5.00;;;;;;;-143.48;91.67;118439.88;5073280;28;20115;-70
2023/02/04 02:20:12;;;;;;;34.10;5.68;;;;;;;-143.48;91.12;118439.88;5073335;28;20051;-70
2023/02/04 02:22:45;;;;;;;40.88;5.50;;;;;;;-143.48;91.38;118439.88;5055448;28;20032;-70
2023/02/04 02:25:12;;;;;;;32.58;5.00;;;;;;;-143.48;91.77;118439.88;5073382;28;20067;-70
2023/02/04 02:27:38;;;;;;;36.03;4.40;;;;;;;-143.48;91.46;118439.88;5073115;28;20105;-70
2023/02/04 02:30:05;;;;;;;32.60;4.95;;;;;;;-143.48;91.26;118439.88;5055182;28;20059;-70
2023/02/04 02:32:30;;;;;;;32.45;4.97;;;;;;;-143.48;91.72;118439.88;5055062;28;20109;-70
2023/02/04 02:34:56;;;;;;;26.02;4.35;;;;;;;-143.48;91.68;118439.88;5073177;28;20430;-71
2023/02/04 02:37:21;;;;;;;35.88;5.47;;;;;;;-143.48;91.57;118439.88;5055138;28;20406;-71
2023/02/04 02:39:46;;;;;;;32.03;4.65;;;;;;;-143.48;91.49;118439.88;5055025;28;20118;-70
2023/02/04 02:42:15;;;;;;;30.80;4.90;;;;;;;-143.48;91.36;118439.88;5055099;28;20649;-70
2023/02/04 02:44:43;;;;;;;27.90;4.60;;;;;;;-143.48;91.56;118439.88;5073525;28;20040;-70
2023/02/04 02:47:13;;;;;;;34.25;4.75;;;;;;;-143.48;90.78;118439.88;5058862;28;20540;-71
2023/02/04 02:49:39;;;;;;;27.05;4.70;;;;;;;-143.48;91.70;118439.88;5077132;28;20095;-70
2023/02/04 02:52:05;;;;;;;29.60;4.63;;;;;;;-143.48;91.41;118439.88;5058893;28;20036;-70
2023/02/04 02:54:32;;;;;;;32.22;5.20;;;;;;;-143.48;91.59;118439.88;5076885;28;20031;-71
2023/02/04 02:56:58;;;;;;;36.58;5.18;;;;;;;-143.48;91.51;118439.88;5076801;28;20024;-70
2023/02/04 02:59:25;;;;;;;30.05;5.32;;;;;;;-143.48;91.91;118439.88;5076769;28;20074;-69
2023/02/04 03:01:56;;;;;;;34.67;5.50;;;;;;;-143.48;92.73;118439.88;5076815;28;20164;-70
2023/02/04 03:04:24;;;;;;;36.92;6.03;;;;;;;-143.48;92.21;118439.88;5058785;28;20101;-70
2023/02/04 03:06:50;;;;;;;39.67;5.30;;;;;;;-143.48;92.50;118439.88;5076628;28;20020;-70
2023/02/04 03:09:16;;;;;;;36.58;5.65;;;;;;;-143.48;92.80;118439.88;5076679;28;20121;-70
2023/02/04 03:11:42;;;;;;;31.25;4.68;;;;;;;-143.48;92.12;118439.88;5058593;28;20020;-70
2023/02/04 03:14:07;;;;;;;32.58;4.43;;;;;;;-143.48;92.19;118439.88;5076578;28;20020;-71
2023/02/04 03:16:35;;;;;;;30.27;4.57;;;;;;;-143.48;92.40;118439.88;5076545;28;20036;-70
2023/02/04 03:19:02;;;;;;;35.40;4.82;;;;;;;-143.48;92.81;118439.88;5076214;28;20021;-70
2023/02/04 03:21:28;;;;;;;28.65;4.45;;;;;;;-143.48;92.33;118439.88;5076269;28;20590;-71
2023/02/04 03:23:55;;;;;;;32.00;4.55;;;;;;;-143.48;92.62;118439.88;5076405;28;20060;-71
2023/02/04 03:26:22;;;;;;;41.08;5.80;;;;;;;-143.48;92.33;118439.88;5076374;28;20040;-70
2023/02/04 03:28:48;;;;;;;28.52;4.53;;;;;;;-143.48;92.58;118439.88;5058270;28;20437;-71
2023/02/04 03:31:13;;;;;;;36.42;5.35;;;;;;;-143.48;92.81;118439.88;5076199;28;20032;-71
2023/02/04 03:33:39;;;;;;;37.28;5.25;;;;;;;-143.48;92.94;118439.88;5076191;28;20020;-70
2023/02/04 03:36:04;;;;;;;26.98;4.35;;;;;;;-143.48;93.10;118439.88;5076398;28;20066;-71
2023/02/04 03:38:30;;;;;;;34.78;5.03;;;;;;;-143.48;93.09;118439.88;5058059;28;20086;-71
2023/02/04 03:40:55;;;;;;;24.05;4.10;;;;;;;-143.48;92.50;118439.88;5058188;28;20021;-71
2023/02/04 03:43:20;;;;;;;27.33;4.30;;;;;;;-143.48;92.56;118439.88;5076158;28;20025;-71
2023/02/04 03:45:46;;;;;;;37.00;4.70;;;;;;;-143.48;93.13;118439.88;5076037;28;20013;-70
2023/02/04 03:48:12;;;;;;;25.63;4.63;;;;;;;-143.48;92.55;118439.88;5058025;28;20059;-70
2023/02/04 03:50:37;;;;;;;25.73;4.32;;;;;;;-143.48;92.56;118439.88;5076025;28;20035;-70
2023/02/04 03:53:02;;;;;;;30.95;4.70;;;;;;;-143.48;92.68;118439.88;5076003;28;20052;-70
2023/02/04 03:55:28;;;;;;;33.92;4.22;;;;;;;-143.48;92.20;118439.88;5075351;28;20119;-70
2023/02/04 03:57:53;;;;;;;30.27;4.65;;;;;;;-143.48;92.76;118439.88;5075789;28;20024;-70
2023/02/04 04:00:18;;;;;;;27.73;4.75;;;;;;;-143.48;93.00;118439.88;5075959;28;20472;-71
2023/02/04 04:02:44;;;;;;;27.73;4.15;;;;;;;-143.48;92.42;118439.88;5075783;28;20365;-70
2023/02/04 04:05:10;;;;;;;27.40;4.45;;;;;;;-143.48;92.88;118439.88;5075487;28;20031;-70
2023/02/04 04:07:35;;;;;;;26.50;4.38;;;;;;;-143.48;92.80;118439.88;5075646;28;20108;-70
2023/02/04 04:10:01;;;;;;;32.83;4.13;;;;;;;-143.48;92.81;118439.88;5075619;28;20475;-71
2023/02/04 04:12:26;;;;;;;26.90;4.53;;;;;;;-143.48;93.01;118439.88;5075624;28;20051;-70
2023/02/04 04:14:52;;;;;;;28.48;3.83;;;;;;;-143.48;93.24;118439.88;5075590;28;20043;-70
2023/02/04 04:17:17;;;;;;;27.45;4.28;;;;;;;-143.48;93.18;118439.88;5075589;28;20047;-70
2023/02/04 04:19:43;;;;;;;33.55;3.83;;;;;;;-143.48;92.90;118439.88;5075344;28;20594;-70
2023/02/04 04:22:09;;;;;;;21.92;3.50;;;;;;;-143.48;92.77;118439.88;5075546;28;20028;-70
2023/02/04 04:24:34;;;;;;;32.30;4.00;;;;;;;-143.48;93.15;118439.88;5057542;28;20017;-70
2023/02/04 04:27:00;;;;;;;23.58;4.07;;;;;;;-143.48;93.51;118439.88;5075674;28;20028;-71
2023/02/04 04:29:25;;;;;;;30.17;3.85;;;;;;;-143.48;93.86;118439.88;5075878;28;20020;-71
2023/02/04 04:31:50;;;;;;;26.38;4.07;;;;;;;-143.48;93.48;118439.88;5076082;28;20029;-71
2023/02/04 04:34:16;;;;;;;24.33;4.05;;;;;;;-143.48;93.40;118439.88;5058340;28;20059;-70
2023/02/04 04:36:41;;;;;;;32.13;4.50;;;;;;;-143.48;92.76;118439.88;5076559;28;20541;-70
2023/02/04 04:39:06;;;;;;;28.85;4.30;;;;;;;-143.48;93.70;118439.88;5077062;28;20391;-70
2023/02/04 04:41:31;;;;;;;28.17;4.93;;;;;;;-143.48;93.40;118439.88;5077707;28;20020;-71
2023/02/04 04:43:57;;;;;;;30.95;4.07;;;;;;;-143.48;93.12;118439.88;5059785;28;20555;-71
2023/02/04 04:46:22;;;;;;;23.92;4.55;;;;;;;-143.48;93.01;118439.88;5078017;28;20032;-71
2023/02/04 04:48:47;;;;;;;25.73;4.07;;;;;;;-143.48;93.48;118439.88;5060299;28;20020;-71
2023/02/04 04:51:13;;;;;;;27.55;3.80;;;;;;;-143.48;94.18;118439.88;5078197;28;20029;-71
2023/02/04 04:53:38;;;;;;;24.17;4.40;;;;;;;-143.48;93.34;118439.88;5080189;28;20055;-70
2023/02/04 04:56:03;;;;;;;24.42;3.92;;;;;;;-143.48;93.39;118439.88;5094903;28;20062;-70
2023/02/04 04:58:29;;;;;;;25.98;4.18;;;;;;;-143.48;94.00;118439.88;5095675;28;20037;-70
2023/02/04 05:00:54;;;;;;;24.45;4.40;;;;;;;-143.48;94.12;118439.88;5096081;28;20028;-70
2023/02/04 05:03:19;;;;;;;29.80;4.25;;;;;;;-143.48;93.97;118439.88;5096932;28;20056;-71
2023/02/04 05:05:45;;;;;;;23.90;3.80;;;;;;;-143.48;94.27;118439.88;5097054;28;20008;-71
2023/02/04 05:08:15;;;;;;;30.35;3.67;;;;;;;-143.48;93.76;118439.88;5096434;28;20008;-70
2023/02/04 05:10:42;;;;;;;32.90;3.75;;;;;;;-143.48;93.35;118439.88;5097421;28;20060;-69
2023/02/04 05:13:07;;;;;;;34.92;5.35;;;;;;;-143.48;93.68;118439.88;5098084;28;20008;-69
2023/02/04 05:15:33;;;;;;;27.05;4.07;;;;;;;-143.48;93.45;118439.88;5097974;28;20029;-69
2023/02/04 05:17:58;;;;;;;30.90;4.13;;;;;;;-143.48;93.44;118439.88;5097385;28;20055;-69
2023/02/04 05:20:24;;;;;;;33.85;4.47;;;;;;;-143.48;93.87;118439.88;5097506;28;20040;-71
2023/02/04 05:22:50;;;;;;;22.80;3.88;;;;;;;-143.48;93.74;118439.88;5097549;28;20019;-70
2023/02/04 05:25:15;;;;;;;26.38;4.47;;;;;;;-143.48;93.48;118439.88;5097105;28;20025;-70
2023/02/04 05:27:42;;;;;;;27.65;3.90;;;;;;;-143.48;93.69;118439.88;5096583;28;20055;-70
2023/02/04 05:30:10;;;;;;;28.30;4.20;;;;;;;-143.48;93.61;118439.88;5095774;28;20029;-70
2023/02/04 05:32:36;;;;;;;30.92;3.90;;;;;;;-143.48;93.29;118439.88;5095456;28;20039;-70
2023/02/04 05:35:01;;;;;;;24.10;3.65;;;;;;;-143.48;93.40;118439.88;5082714;28;20029;-70
2023/02/04 05:37:26;;;;;;;36.95;4.10;;;;;;;-143.48;93.67;118439.88;5061328;28;20027;-71
2023/02/04 05:39:52;;;;;;;27.02;4.63;;;;;;;-143.48;94.51;118439.88;5060101;28;20028;-71
2023/02/04 05:42:17;;;;;;;26.88;4.38;;;;;;;-143.48;94.37;118439.88;5077989;28;20031;-72
2023/02/04 05:44:42;;;;;;;27.80;4.10;;;;;;;-143.48;94.07;118439.88;5076414;28;20489;-70
2023/02/04 05:47:08;;;;;;;22.88;4.03;;;;;;;-143.48;94.07;118439.88;5075766;28;20024;-70
2023/02/04 05:49:33;;;;;;;24.27;3.85;;;;;;;-143.48;93.87;118439.88;5075903;28;20012;-70
2023/02/04 05:51:58;;;;;;;30.27;4.03;;;;;;;-143.48;94.00;118439.88;5057334;28;20147;-70
2023/02/04 05:54:24;;;;;;;25.75;3.78;;;;;;;-143.48;94.02;118439.88;5075314;28;20052;-70
2023/02/04 05:56:50;;;;;;;22.23;3.70;;;;;;;-143.48;93.56;118439.88;5056887;28;20029;-70
2023/02/04 05:59:16;;;;;;;29.48;3.95;;;;;;;-143.48;93.50;118439.88;5056523;28;20027;-70
2023/02/04 06:01:41;;;;;;;31.63;4.63;;;;;;;-143.48;93.94;118439.88;5056449;28;20020;-70
2023/02/04 06:04:07;;;;;;;28.70;4.40;;;;;;;-143.48;93.89;118439.88;5056459;28;20109;-70
2023/02/04 06:06:32;;;;;;;34.63;5.15;;;;;;;-143.48;93.51;118439.88;5057508;28;20131;-69
2023/02/04 06:08:57;;;;;;;24.05;4.03;;;;;;;-143.48;93.71;118439.88;5076038;28;20021;-70
2023/02/04 06:11:22;;;;;;;30.38;4.93;;;;;;;-143.48;94.00;118439.88;5075456;28;20027;-70
2023/02/04 06:13:48;;;;;;;27.98;4.70;;;;;;;-143.48;94.32;118439.88;5075544;28;20464;-69
2023/02/04 06:16:13;;;;;;;26.60;4.78;;;;;;;-143.48;94.72;118439.88;5075122;28;20016;-70
2023/02/04 06:18:38;;;;;;;22.90;5.13;;;;;;;-143.48;94.54;118439.88;5073301;28;20116;-70
2023/02/04 06:21:04;;;;;;;29.92;5.35;;;;;;;-143.48;94.94;118439.88;5074064;28;20482;-70
2023/02/04 06:23:32;;;;;;;23.35;4.82;;;;;;;-143.48;94.79;118439.88;5073546;28;20070;-69
2023/02/04 06:25:58;;;;;;;22.08;4.93;;;;;;;-143.48;94.46;118439.88;5073590;28;20049;-69
2023/02/04 06:28:23;;;;;;;31.30;4.75;;;;;;;-143.48;94.95;118439.88;5055478;28;20518;-69
2023/02/04 06:30:49;;;;;;;40.08;7.18;;;;;;;-143.48;95.10;118439.88;5073755;28;20025;-69
2023/02/04 06:33:14;;;;;;;27.13;4.78;;;;;;;-143.48;94.86;118439.88;5073396;28;20044;-69
2023/02/04 06:35:39;;;;;;;26.83;5.40;;;;;;;-143.48;94.78;118439.88;5073358;28;20052;-69
2023/02/04 06:38:05;;;;;;;30.70;5.97;;;;;;;-143.48;95.03;118439.88;5073336;28;20020;-70
2023/02/04 06:40:30;;;;;;;30.25;5.85;;;;;;;-143.48;94.79;118439.88;5055535;28;20452;-70
2023/02/04 06:42:55;;;;;;;29.85;5.15;;;;;;;-143.48;94.66;118439.88;5073356;28;20571;-70
2023/02/04 06:45:21;;;;;;;28.88;5.88;;;;;;;-143.48;94.48;118439.88;5074253;28;20112;-70
2023/02/04 06:47:46;;;;;;;25.30;6.70;;;;;;;-143.48;94.74;118439.88;5057315;28;20107;-69
2023/02/04 06:50:11;;;;;;;36.08;7.38;;;;;;;-143.48;95.27;118439.88;5073869;28;20016;-70
2023/02/04 06:52:37;;;;;;;37.78;7.40;;;;;;;-143.48;95.13;118439.88;5074256;28;20120;-69
2023/02/04 06:55:02;;;;;;;35.03;6.55;;;;;;;-143.48;95.33;118439.88;5075077;28;20113;-70
2023/02/04 06:57:27;;;;;;;27.13;5.97;;;;;;;-143.48;95.21;118439.88;5074094;28;20523;-70
2023/02/04 06:59:52;;;;;;;29.10;5.90;;;;;;;-143.48;94.85;118439.88;5073615;28;20029;-70
2023/02/04 07:02:18;;;;;;;28.33;6.35;;;;;;;-143.48;94.95;118439.88;5055072;28;20031;-69
2023/02/04 07:04:43;;;;;;;27.05;6.00;;;;;;;-143.48;94.90;118439.88;5073115;28;20020;-69
2023/02/04 07:07:09;;;;;;;31.88;6.25;;;;;;;-143.48;94.56;118439.88;5073005;28;20067;-70
2023/02/04 07:09:35;;;;;;;27.30;5.85;;;;;;;-143.48;94.89;118439.88;5073151;28;20016;-70
2023/02/04 07:12:00;;;;;;;29.83;6.18;;;;;;;-143.48;95.19;118439.88;5054779;28;20055;-71
2023/02/04 07:14:25;;;;;;;35.60;5.68;;;;;;;-143.48;95.54;118439.88;5072893;28;20020;-70
2023/02/04 07:16:51;;;;;;;27.92;6.18;;;;;;;-143.48;95.30;118439.88;5054922;28;20016;-70
2023/02/04 07:19:16;;;;;;;27.70;6.45;;;;;;;-143.48;95.62;118439.88;5072689;28;20025;-70
2023/02/04 07:21:41;;;;;;;27.08;5.47;;;;;;;-143.48;95.31;118439.88;5055351;28;20119;-70
2023/02/04 07:24:07;;;;;;;30.42;6.63;;;;;;;-143.48;94.81;118439.88;5072918;28;20051;-69
2023/02/04 07:26:33;;;;;;;33.00;6.70;;;;;;;-143.48;95.20;118439.88;5072865;28;20409;-70
2023/02/04 07:28:58;;;;;;;24.15;5.75;;;;;;;-143.48;95.21;118439.88;5055272;28;20031;-69
2023/02/04 07:31:24;;;;;;;33.53;6.82;;;;;;;-143.48;95.58;118439.88;5074841;28;20025;-71
2023/02/04 07:33:49;;;;;;;39.05;7.03;;;;;;;-143.48;95.26;118439.88;5076717;28;20023;-71
2023/02/04 07:36:14;;;;;;;35.97;6.70;;;;;;;-143.48;95.24;118439.88;5076293;28;20060;-70
2023/02/04 07:38:39;;;;;;;35.70;6.50;;;;;;;-143.48;94.91;118439.88;5080201;28;20073;-70
2023/02/04 07:41:05;;;;;;;25.98;6.43;;;;;;;-143.48;94.95;118439.88;5076069;28;20024;-71
2023/02/04 07:43:30;;;;;;;30.58;6.28;;;;;;;-143.48;94.93;118439.88;5076099;28;20032;-71
2023/02/04 07:45:55;;;;;;;28.48;6.22;;;;;;;-143.48;94.70;118439.88;5057755;28;20115;-71
2023/02/04 07:48:21;;;;;;;25.77;6.05;;;;;;;-143.48;94.77;118439.88;5075913;28;20049;-70
2023/02/04 07:50:46;;;;;;;23.92;5.60;;;;;;;-143.48;94.59;118439.88;5073659;28;20074;-70
2023/02/04 07:53:11;;;;;;;26.15;6.85;;;;;;;-143.48;94.46;118439.88;5073746;28;20504;-70
2023/02/04 07:55:37;;;;;;;32.33;6.75;;;;;;;-143.48;94.25;118439.88;5055966;28;20048;-70
2023/02/04 07:58:03;;;;;;;33.35;6.50;;;;;;;-143.48;94.27;118439.88;5073851;28;20055;-70
2023/02/04 08:00:28;;;;;;;33.50;7.05;;;;;;;-143.48;94.26;118439.88;5073754;28;20024;-70
2023/02/04 08:02:53;;;;;;;24.70;6.10;;;;;;;-143.48;94.27;118439.88;5055951;28;20032;-70
2023/02/04 08:05:19;;;;;;;28.45;7.57;;;;;;;-143.48;94.12;118439.88;5057435;28;20388;-70
2023/02/04 08:07:44;;;;;;;32.58;8.05;;;;;;;-143.48;94.01;118439.88;5074602;28;20056;-69
2023/02/04 08:10:11;;;;;;;31.48;7.03;;;;;;;-143.48;93.82;118439.88;5075488;28;20021;-71
2023/02/04 08:12:36;;;;;;;33.22;7.18;;;;;;;-143.48;93.51;118439.88;5057521;28;20036;-71
2023/02/04 08:15:02;;;;;;;30.75;6.53;;;;;;;-143.48;93.83;118439.88;5075551;28;20090;-70
2023/02/04 08:17:27;;;;;;;30.17;6.40;;;;;;;-143.48;93.06;118439.88;5057236;28;20097;-70
2023/02/04 08:19:53;;;;;;;32.28;7.60;;;;;;;-143.48;92.94;118439.88;5075093;28;20527;-71
2023/02/04 08:22:18;;;;;;;33.67;7.28;;;;;;;-143.48;93.68;118439.88;5075538;28;20077;-71
2023/02/04 08:24:44;;;;;;;31.08;7.60;;;;;;;-143.48;93.17;118439.88;5057113;28;20024;-69
2023/02/04 08:27:09;;;;;;;33.78;7.32;;;;;;;-143.48;93.02;118439.88;5057336;28;20471;-71
2023/02/04 08:29:34;;;;;;;35.22;6.93;;;;;;;-143.48;92.11;118439.88;5075155;28;20060;-70
2023/02/04 08:32:00;;;;;;;38.80;7.25;;;;;;;-143.48;91.78;118439.88;5075376;28;20024;-70
2023/02/04 08:34:25;;;;;;;28.20;6.50;;;;;;;-143.48;91.57;118439.88;5057742;28;20149;-70
2023/02/04 08:36:51;;;;;;;35.58;7.40;;;;;;;-143.48;90.92;118439.88;5057266;28;20093;-69
2023/02/04 08:39:16;;;;;;;36.78;7.88;;;;;;;-143.48;90.43;118439.88;5074767;28;20472;-71
2023/02/04 08:41:41;;;;;;;34.45;7.32;;;;;;;-143.48;90.51;118439.88;5076031;28;20475;-69
2023/02/04 08:44:07;;;;;;;31.35;7.10;;;;;;;-143.48;90.81;118439.88;5056314;28;20035;-69
2023/02/04 08:46:32;;;;;;;32.90;7.65;;;;;;;-143.48;90.16;118439.88;5075211;28;20032;-69
2023/02/04 08:48:57;;;;;;;28.75;5.78;;;;;;;-143.48;90.11;118439.88;5055750;28;20017;-70
2023/02/04 08:51:22;;;;;;;27.63;5.95;;;;;;;-143.48;89.86;118439.88;5073321;28;20036;-69
2023/02/04 08:53:48;;;;;;;37.47;6.72;;;;;;;-143.48;89.51;118439.88;5075010;28;20048;-70
2023/02/04 08:56:16;;;;;;;32.65;6.50;;;;;;;-143.48;88.86;118439.88;5075134;28;20028;-70
2023/02/04 08:58:42;;;;;;;35.67;6.53;;;;;;;-143.48;88.74;118439.88;5074761;28;20029;-70
2023/02/04 09:01:10;;;;;;;32.70;5.50;;;;;;;-143.48;88.56;118439.88;5056613;28;20044;-70
2023/02/04 09:03:35;;;;;;;28.90;5.75;;;;;;;-143.48;88.74;118439.88;5074324;28;20471;-70
2023/02/04 09:06:01;;;;;;;33.83;6.05;;;;;;;-143.48;87.98;118439.88;5074482;28;20139;-71
2023/02/04 09:08:26;;;;;;;30.77;6.20;;;;;;;-143.48;87.53;118439.88;5056467;28;20017;-70
2023/02/04 09:10:51;;;;;;;28.63;5.35;;;;;;;-143.48;86.69;118439.88;5074301;28;20028;-70
2023/02/04 09:13:17;;;;;;;26.80;5.43;;;;;;;-143.48;85.80;118439.88;5055003;28;20142;-70
2023/02/04 09:15:42;;;;;;;28.65;5.03;;;;;;;-143.48;84.42;118439.88;5074446;28;20020;-70
2023/02/04 09:18:15;;;;;;;35.10;5.93;;;;;;;-143.48;83.43;118439.88;5074565;28;20028;-70
2023/02/04 09:20:40;;;;;;;;;;;;;;;-143.48;84.79;118439.88;5074801;28;20040;-70
2023/02/04 09:23:08;;;;;;;34.15;5.18;;;;;;;-143.48;83.85;118439.88;5074286;28;19909;-71
2023/02/04 09:25:34;;;;;;;31.67;5.00;;;;;;;-143.48;82.99;118439.88;5074518;28;20028;-69
2023/02/04 09:27:59;;;;;;;29.80;5.60;;;;;;;-143.48;82.54;118439.88;5056155;28;20030;-69
2023/02/04 09:30:24;;;;;;;32.13;5.22;;;;;;;-143.48;80.51;118439.88;5073213;28;20104;-69
2023/02/04 09:32:50;;;;;;;33.25;4.97;;;;;;;-143.48;78.33;118439.88;5074042;28;20032;-69
2023/02/04 09:35:15;;;;;;;35.97;5.78;;;;;;;-143.48;77.04;118439.88;5075305;28;20024;-70
2023/02/04 09:37:41;;;;;;;38.80;6.03;;;;;;;-143.48;76.52;118439.88;5074332;28;20047;-70
2023/02/04 09:40:06;;;;;;;31.00;5.38;;;;;;;-143.48;73.30;118439.88;5056857;28;20430;-70
2023/02/04 09:42:32;;;;;;;27.33;5.05;;;;;;;-143.48;74.72;118439.88;5075364;28;20158;-70
2023/02/04 09:44:59;;;;;;;28.27;4.88;;;;;;;-143.48;72.55;118439.88;5073717;28;20107;-70
2023/02/04 09:47:26;;;;;;;34.38;5.40;;;;;;;-143.48;71.48;118439.88;5075107;28;20052;-71
2023/02/04 09:49:51;;;;;;;30.73;5.38;;;;;;;-143.48;67.38;118439.88;5073824;28;20022;-70
2023/02/04 09:52:17;;;;;;;36.10;6.03;;;;;;;-143.48;69.27;118439.88;5073546;28;20045;-70
2023/02/04 09:54:43;;;;;;;34.75;5.90;;;;;;;-143.48;69.30;118439.88;5073288;28;20383;-71
2023/02/04 09:57:15;;;;;;;37.92;5.45;;;;;;;-143.48;66.35;118439.88;5073561;28;20426;-71
2023/02/04 09:59:43;;;;;;;31.98;5.93;;;;;;;-143.48;61.39;118439.88;5073614;28;20025;-71
2023/02/04 10:02:21;;;;;;;32.00;5.32;;;;;;;-143.48;58.90;118439.88;5056360;28;20032;-71
2023/02/04 10:04:48;;;;;;;37.65;5.43;;;;;;;-143.48;60.47;118439.88;5075126;28;20032;-71
2023/02/04 10:07:20;;;;;;;34.47;5.93;;;;;;;-143.48;57.24;118439.88;5057340;28;20088;-72
2023/02/04 10:09:47;;;;;;;30.60;5.73;;;;;;;-143.48;50.66;118439.88;5074033;28;20486;-72
2023/02/04 10:12:13;;;;;;;29.25;4.80;;;;;;;-143.48;51.46;118439.88;5073933;28;20277;-72
2023/02/04 10:14:39;;;;;;;35.60;5.40;;;;;;;-143.48;46.84;118439.88;5055997;28;20129;-72
2023/02/04 10:17:07;;;;;;;29.67;5.93;;;;;;;-143.48;50.13;118439.88;5055810;28;20059;-72
2023/02/04 10:19:32;;;;;;;28.25;5.68;;;;;;;-143.48;57.21;118439.88;5073500;28;20025;-71
2023/02/04 10:21:58;;;;;;;37.33;6.32;;;;;;;-143.48;60.96;118439.88;5073768;28;20035;-71
2023/02/04 10:24:25;;;;;;;40.17;5.68;;;;;;;-143.48;61.63;118439.88;5076514;28;20025;-72
2023/02/04 10:26:51;;;;;;;33.35;5.97;;;;;;;-143.48;62.25;118439.88;5074132;28;20081;-71
2023/02/04 10:29:24;;;;;;;32.50;5.50;;;;;;;-143.48;61.96;118439.88;5074073;28;20021;-70
2023/02/04 10:31:50;;;;;;;37.00;5.78;;;;;;;-143.48;62.28;118439.88;5073582;28;20024;-70
2023/02/04 10:34:17;;;;;;;28.80;5.40;;;;;;;-143.48;61.79;118439.88;5072998;28;20048;-69
2023/02/04 10:36:45;;;;;;;38.95;6.20;;;;;;;-143.48;59.70;118439.88;5073591;28;20446;-71
2023/02/04 10:39:13;;;;;;;32.03;6.03;;;;;;;-143.48;58.50;118439.88;5073974;28;20032;-71
2023/02/04 10:41:44;;;;;;;34.90;5.57;;;;;;;-143.48;57.90;118439.88;5055876;28;20029;-71
2023/02/04 10:44:12;;;;;;;36.47;5.88;;;;;;;-143.48;51.31;118439.88;5073661;28;20025;-71
2023/02/04 10:46:37;;;;;;;34.65;6.82;;;;;;;-143.48;49.01;118439.88;5071470;28;20096;-71
2023/02/04 10:49:23;;;;;;;33.22;6.75;;;;;;;-143.48;46.24;118439.88;5053666;28;20087;-70
2023/02/04 10:51:51;;;;;;;31.90;5.85;;;;;;;-143.48;47.45;118439.88;5070929;28;20043;-71
2023/02/04 10:54:31;;;;;;;32.28;5.75;;;;;;;-143.48;45.07;118439.88;5070981;28;20053;-71
2023/02/04 10:56:57;;;;;;;36.45;6.13;;;;;;;-143.48;44.63;118439.88;5070468;28;20099;-70